sensor_id;sensor_type;location;lat;lon;timestamp;P1;durP1;ratioP1;P2;durP2;ratioP2
51358;SDS011;37448;51.588;7.248;2023-12-14T00:00:42;13.57;;;6.38;;
51358;SDS011;37448;51.588;7.248;2023-12-14T00:02:42;13.32;;;7.00;;
51358;SDS011;37448;51.588;7.248;2023-12-14T00:04:43;13.82;;;6.43;;
51358;SDS011;37448;51.588;7.248;2023-12-14T00:06:43;12.20;;;6.30;;
51358;SDS011;37448;51.588;7.248;2023-12-14T00:08:44;10.15;;;6.13;;
51358;SDS011;37448;51.588;7.248;2023-12-14T00:10:44;11.55;;;5.40;;
51358;SDS011;37448;51.588;7.248;2023-12-14T00:12:45;12.55;;;6.93;;
51358;SDS011;37448;51.588;7.248;2023-12-14T00:14:45;12.95;;;6.75;;
51358;SDS011;37448;51.588;7.248;2023-12-14T00:16:45;13.50;;;7.10;;
51358;SDS011;37448;51.588;7.248;2023-12-14T00:18:46;9.80;;;5.47;;
51358;SDS011;37448;51.588;7.248;2023-12-14T00:20:46;9.00;;;5.32;;
51358;SDS011;37448;51.588;7.248;2023-12-14T00:22:46;9.70;;;4.85;;
51358;SDS011;37448;51.588;7.248;2023-12-14T00:24:47;9.63;;;4.80;;
51358;SDS011;37448;51.588;7.248;2023-12-14T00:26:47;8.00;;;4.63;;
51358;SDS011;37448;51.588;7.248;2023-12-14T00:28:48;9.38;;;4.90;;
51358;SDS011;37448;51.588;7.248;2023-12-14T00:30:48;8.07;;;4.80;;
51358;SDS011;37448;51.588;7.248;2023-12-14T00:32:48;7.50;;;4.63;;
51358;SDS011;37448;51.588;7.248;2023-12-14T00:34:49;7.50;;;4.28;;
51358;SDS011;37448;51.588;7.248;2023-12-14T00:36:49;7.05;;;4.53;;
51358;SDS011;37448;51.588;7.248;2023-12-14T00:38:50;7.28;;;4.57;;
51358;SDS011;37448;51.588;7.248;2023-12-14T00:40:50;6.35;;;4.18;;
51358;SDS011;37448;51.588;7.248;2023-12-14T00:42:50;8.00;;;5.05;;
51358;SDS011;37448;51.588;7.248;2023-12-14T00:44:51;9.23;;;4.72;;
51358;SDS011;37448;51.588;7.248;2023-12-14T00:46:51;8.13;;;5.25;;
51358;SDS011;37448;51.588;7.248;2023-12-14T00:48:52;7.47;;;4.43;;
51358;SDS011;37448;51.588;7.248;2023-12-14T00:50:52;8.32;;;4.90;;
51358;SDS011;37448;51.588;7.248;2023-12-14T00:52:52;8.40;;;4.63;;
51358;SDS011;37448;51.588;7.248;2023-12-14T00:54:53;7.63;;;4.90;;
51358;SDS011;37448;51.588;7.248;2023-12-14T00:56:53;6.75;;;3.97;;
51358;SDS011;37448;51.588;7.248;2023-12-14T00:58:53;7.90;;;4.32;;
51358;SDS011;37448;51.588;7.248;2023-12-14T01:00:54;7.05;;;4.50;;
51358;SDS011;37448;51.588;7.248;2023-12-14T01:02:54;5.88;;;4.05;;
51358;SDS011;37448;51.588;7.248;2023-12-14T01:04:55;10.05;;;4.88;;
51358;SDS011;37448;51.588;7.248;2023-12-14T01:06:55;7.13;;;4.55;;
51358;SDS011;37448;51.588;7.248;2023-12-14T01:08:55;9.18;;;4.53;;
51358;SDS011;37448;51.588;7.248;2023-12-14T01:10:56;9.65;;;4.93;;
51358;SDS011;37448;51.588;7.248;2023-12-14T01:12:56;8.27;;;4.95;;
51358;SDS011;37448;51.588;7.248;2023-12-14T01:14:56;9.30;;;5.10;;
51358;SDS011;37448;51.588;7.248;2023-12-14T01:16:57;8.30;;;4.78;;
51358;SDS011;37448;51.588;7.248;2023-12-14T01:18:57;10.73;;;5.50;;
51358;SDS011;37448;51.588;7.248;2023-12-14T01:20:58;9.00;;;5.47;;
51358;SDS011;37448;51.588;7.248;2023-12-14T01:22:58;11.38;;;6.00;;
51358;SDS011;37448;51.588;7.248;2023-12-14T01:24:59;10.35;;;5.82;;
51358;SDS011;37448;51.588;7.248;2023-12-14T01:26:59;10.60;;;6.35;;
51358;SDS011;37448;51.588;7.248;2023-12-14T01:29:00;9.70;;;5.72;;
51358;SDS011;37448;51.588;7.248;2023-12-14T01:31:00;11.93;;;6.32;;
51358;SDS011;37448;51.588;7.248;2023-12-14T01:33:00;11.52;;;7.05;;
51358;SDS011;37448;51.588;7.248;2023-12-14T01:35:01;11.75;;;7.22;;
51358;SDS011;37448;51.588;7.248;2023-12-14T01:37:01;14.02;;;7.63;;
51358;SDS011;37448;51.588;7.248;2023-12-14T01:39:02;11.57;;;6.75;;
51358;SDS011;37448;51.588;7.248;2023-12-14T01:41:02;11.80;;;6.20;;
51358;SDS011;37448;51.588;7.248;2023-12-14T01:43:09;15.85;;;7.47;;
51358;SDS011;37448;51.588;7.248;2023-12-14T01:45:10;14.07;;;8.55;;
51358;SDS011;37448;51.588;7.248;2023-12-14T01:47:11;15.73;;;7.38;;
51358;SDS011;37448;51.588;7.248;2023-12-14T01:49:12;18.50;;;9.57;;
51358;SDS011;37448;51.588;7.248;2023-12-14T01:51:12;16.73;;;8.18;;
51358;SDS011;37448;51.588;7.248;2023-12-14T01:53:13;16.42;;;8.80;;
51358;SDS011;37448;51.588;7.248;2023-12-14T01:55:13;16.52;;;7.80;;
51358;SDS011;37448;51.588;7.248;2023-12-14T01:57:14;15.98;;;8.60;;
51358;SDS011;37448;51.588;7.248;2023-12-14T01:59:14;13.35;;;7.72;;
51358;SDS011;37448;51.588;7.248;2023-12-14T02:03:20;14.65;;;7.82;;
51358;SDS011;37448;51.588;7.248;2023-12-14T02:05:21;18.55;;;9.27;;
51358;SDS011;37448;51.588;7.248;2023-12-14T02:07:22;16.70;;;8.63;;
51358;SDS011;37448;51.588;7.248;2023-12-14T02:09:22;16.80;;;7.20;;
51358;SDS011;37448;51.588;7.248;2023-12-14T02:11:23;14.80;;;7.85;;
51358;SDS011;37448;51.588;7.248;2023-12-14T02:13:23;14.60;;;7.53;;
51358;SDS011;37448;51.588;7.248;2023-12-14T02:15:23;16.90;;;8.00;;
51358;SDS011;37448;51.588;7.248;2023-12-14T02:17:24;15.52;;;7.72;;
51358;SDS011;37448;51.588;7.248;2023-12-14T02:19:24;14.45;;;7.13;;
51358;SDS011;37448;51.588;7.248;2023-12-14T02:21:24;13.80;;;7.80;;
51358;SDS011;37448;51.588;7.248;2023-12-14T02:23:25;15.73;;;7.25;;
51358;SDS011;37448;51.588;7.248;2023-12-14T02:25:25;15.77;;;8.32;;
51358;SDS011;37448;51.588;7.248;2023-12-14T02:27:26;13.57;;;6.63;;
51358;SDS011;37448;51.588;7.248;2023-12-14T02:29:27;12.68;;;6.63;;
51358;SDS011;37448;51.588;7.248;2023-12-14T02:31:28;15.10;;;6.97;;
51358;SDS011;37448;51.588;7.248;2023-12-14T02:33:28;15.35;;;7.10;;
51358;SDS011;37448;51.588;7.248;2023-12-14T02:35:29;16.63;;;7.18;;
51358;SDS011;37448;51.588;7.248;2023-12-14T02:37:29;14.68;;;7.00;;
51358;SDS011;37448;51.588;7.248;2023-12-14T02:39:29;14.18;;;6.68;;
51358;SDS011;37448;51.588;7.248;2023-12-14T02:41:30;15.27;;;7.30;;
51358;SDS011;37448;51.588;7.248;2023-12-14T02:43:30;14.68;;;7.53;;
51358;SDS011;37448;51.588;7.248;2023-12-14T02:45:30;15.45;;;7.97;;
51358;SDS011;37448;51.588;7.248;2023-12-14T02:47:31;16.05;;;8.43;;
51358;SDS011;37448;51.588;7.248;2023-12-14T02:49:31;16.10;;;8.88;;
51358;SDS011;37448;51.588;7.248;2023-12-14T02:51:32;15.13;;;7.28;;
51358;SDS011;37448;51.588;7.248;2023-12-14T02:53:32;15.38;;;8.02;;
51358;SDS011;37448;51.588;7.248;2023-12-14T02:55:33;15.38;;;7.85;;
51358;SDS011;37448;51.588;7.248;2023-12-14T02:57:33;15.43;;;8.07;;
51358;SDS011;37448;51.588;7.248;2023-12-14T02:59:34;14.73;;;8.07;;
51358;SDS011;37448;51.588;7.248;2023-12-14T03:01:34;16.88;;;8.25;;
51358;SDS011;37448;51.588;7.248;2023-12-14T03:03:37;18.13;;;9.02;;
51358;SDS011;37448;51.588;7.248;2023-12-14T03:05:38;14.43;;;7.65;;
51358;SDS011;37448;51.588;7.248;2023-12-14T03:07:39;17.50;;;8.30;;
51358;SDS011;37448;51.588;7.248;2023-12-14T03:09:40;19.10;;;9.57;;
51358;SDS011;37448;51.588;7.248;2023-12-14T03:11:43;18.50;;;9.23;;
51358;SDS011;37448;51.588;7.248;2023-12-14T03:13:44;17.50;;;7.78;;
51358;SDS011;37448;51.588;7.248;2023-12-14T03:15:44;14.73;;;7.55;;
51358;SDS011;37448;51.588;7.248;2023-12-14T03:17:45;16.60;;;8.15;;
51358;SDS011;37448;51.588;7.248;2023-12-14T03:19:45;14.75;;;7.40;;
51358;SDS011;37448;51.588;7.248;2023-12-14T03:21:46;17.83;;;7.53;;
51358;SDS011;37448;51.588;7.248;2023-12-14T03:23:46;14.57;;;7.35;;
51358;SDS011;37448;51.588;7.248;2023-12-14T03:25:46;14.85;;;7.55;;
51358;SDS011;37448;51.588;7.248;2023-12-14T03:27:47;19.02;;;9.43;;
51358;SDS011;37448;51.588;7.248;2023-12-14T03:29:47;14.63;;;8.80;;
51358;SDS011;37448;51.588;7.248;2023-12-14T03:31:48;18.17;;;9.57;;
51358;SDS011;37448;51.588;7.248;2023-12-14T03:33:48;16.08;;;8.23;;
51358;SDS011;37448;51.588;7.248;2023-12-14T03:35:48;15.95;;;8.40;;
51358;SDS011;37448;51.588;7.248;2023-12-14T03:37:49;16.33;;;8.95;;
51358;SDS011;37448;51.588;7.248;2023-12-14T03:39:49;17.85;;;8.27;;
51358;SDS011;37448;51.588;7.248;2023-12-14T03:41:49;14.70;;;8.18;;
51358;SDS011;37448;51.588;7.248;2023-12-14T03:43:50;13.40;;;7.05;;
51358;SDS011;37448;51.588;7.248;2023-12-14T03:45:50;14.48;;;8.02;;
51358;SDS011;37448;51.588;7.248;2023-12-14T03:47:51;16.85;;;8.27;;
51358;SDS011;37448;51.588;7.248;2023-12-14T03:49:51;15.27;;;8.48;;
51358;SDS011;37448;51.588;7.248;2023-12-14T03:51:52;16.40;;;8.02;;
51358;SDS011;37448;51.588;7.248;2023-12-14T03:53:52;15.35;;;8.00;;
51358;SDS011;37448;51.588;7.248;2023-12-14T03:55:52;14.80;;;8.32;;
51358;SDS011;37448;51.588;7.248;2023-12-14T03:57:53;16.88;;;8.98;;
51358;SDS011;37448;51.588;7.248;2023-12-14T03:59:53;13.82;;;8.35;;
51358;SDS011;37448;51.588;7.248;2023-12-14T04:01:54;15.18;;;8.02;;
51358;SDS011;37448;51.588;7.248;2023-12-14T04:03:54;12.80;;;6.93;;
51358;SDS011;37448;51.588;7.248;2023-12-14T04:05:54;12.88;;;7.07;;
51358;SDS011;37448;51.588;7.248;2023-12-14T04:07:55;11.68;;;6.20;;
51358;SDS011;37448;51.588;7.248;2023-12-14T04:09:55;8.98;;;5.47;;
51358;SDS011;37448;51.588;7.248;2023-12-14T04:11:56;10.10;;;5.47;;
51358;SDS011;37448;51.588;7.248;2023-12-14T04:13:56;10.95;;;5.53;;
51358;SDS011;37448;51.588;7.248;2023-12-14T04:15:56;9.60;;;5.30;;
51358;SDS011;37448;51.588;7.248;2023-12-14T04:17:57;9.30;;;5.35;;
51358;SDS011;37448;51.588;7.248;2023-12-14T04:19:58;10.52;;;5.30;;
51358;SDS011;37448;51.588;7.248;2023-12-14T04:21:59;10.63;;;5.60;;
51358;SDS011;37448;51.588;7.248;2023-12-14T04:23:59;11.60;;;6.07;;
51358;SDS011;37448;51.588;7.248;2023-12-14T04:26:00;13.40;;;5.70;;
51358;SDS011;37448;51.588;7.248;2023-12-14T04:28:00;11.63;;;6.05;;
51358;SDS011;37448;51.588;7.248;2023-12-14T04:30:00;12.93;;;6.97;;
51358;SDS011;37448;51.588;7.248;2023-12-14T04:32:01;11.50;;;6.78;;
51358;SDS011;37448;51.588;7.248;2023-12-14T04:34:01;13.52;;;6.85;;
51358;SDS011;37448;51.588;7.248;2023-12-14T04:36:02;11.13;;;6.30;;
51358;SDS011;37448;51.588;7.248;2023-12-14T04:38:03;13.75;;;6.70;;
51358;SDS011;37448;51.588;7.248;2023-12-14T04:40:03;15.35;;;7.30;;
51358;SDS011;37448;51.588;7.248;2023-12-14T04:42:04;10.90;;;6.18;;
51358;SDS011;37448;51.588;7.248;2023-12-14T04:44:05;11.07;;;5.85;;
51358;SDS011;37448;51.588;7.248;2023-12-14T04:46:05;11.38;;;6.25;;
51358;SDS011;37448;51.588;7.248;2023-12-14T04:48:06;12.55;;;6.15;;
51358;SDS011;37448;51.588;7.248;2023-12-14T04:50:06;12.10;;;6.38;;
51358;SDS011;37448;51.588;7.248;2023-12-14T04:52:08;13.05;;;6.10;;
51358;SDS011;37448;51.588;7.248;2023-12-14T04:54:08;12.50;;;5.13;;
51358;SDS011;37448;51.588;7.248;2023-12-14T04:56:09;10.02;;;5.50;;
51358;SDS011;37448;51.588;7.248;2023-12-14T04:58:10;10.75;;;4.97;;
51358;SDS011;37448;51.588;7.248;2023-12-14T05:00:11;12.13;;;6.57;;
51358;SDS011;37448;51.588;7.248;2023-12-14T05:02:12;12.60;;;5.70;;
51358;SDS011;37448;51.588;7.248;2023-12-14T05:04:12;10.88;;;6.40;;
51358;SDS011;37448;51.588;7.248;2023-12-14T05:06:13;12.82;;;6.85;;
51358;SDS011;37448;51.588;7.248;2023-12-14T05:08:13;12.93;;;6.32;;
51358;SDS011;37448;51.588;7.248;2023-12-14T05:10:13;12.23;;;6.75;;
51358;SDS011;37448;51.588;7.248;2023-12-14T05:12:14;12.00;;;6.75;;
51358;SDS011;37448;51.588;7.248;2023-12-14T05:14:14;15.73;;;7.20;;
51358;SDS011;37448;51.588;7.248;2023-12-14T05:16:15;15.10;;;7.05;;
51358;SDS011;37448;51.588;7.248;2023-12-14T05:18:15;12.65;;;7.07;;
51358;SDS011;37448;51.588;7.248;2023-12-14T05:20:16;14.20;;;6.50;;
51358;SDS011;37448;51.588;7.248;2023-12-14T05:22:16;16.33;;;7.40;;
51358;SDS011;37448;51.588;7.248;2023-12-14T05:24:17;19.48;;;8.20;;
51358;SDS011;37448;51.588;7.248;2023-12-14T05:26:17;12.52;;;7.25;;
51358;SDS011;37448;51.588;7.248;2023-12-14T05:28:18;15.63;;;7.88;;
51358;SDS011;37448;51.588;7.248;2023-12-14T05:30:18;15.35;;;7.47;;
51358;SDS011;37448;51.588;7.248;2023-12-14T05:32:19;15.95;;;7.68;;
51358;SDS011;37448;51.588;7.248;2023-12-14T05:34:20;16.23;;;8.32;;
51358;SDS011;37448;51.588;7.248;2023-12-14T05:36:20;15.30;;;7.70;;
51358;SDS011;37448;51.588;7.248;2023-12-14T05:38:21;16.30;;;8.38;;
51358;SDS011;37448;51.588;7.248;2023-12-14T05:40:21;17.33;;;8.65;;
51358;SDS011;37448;51.588;7.248;2023-12-14T05:42:22;17.42;;;8.77;;
51358;SDS011;37448;51.588;7.248;2023-12-14T05:44:22;16.77;;;8.32;;
51358;SDS011;37448;51.588;7.248;2023-12-14T05:46:23;18.58;;;7.38;;
51358;SDS011;37448;51.588;7.248;2023-12-14T05:48:23;17.17;;;9.10;;
51358;SDS011;37448;51.588;7.248;2023-12-14T05:50:24;17.63;;;7.63;;
51358;SDS011;37448;51.588;7.248;2023-12-14T05:52:25;16.23;;;8.27;;
51358;SDS011;37448;51.588;7.248;2023-12-14T05:54:25;14.75;;;7.18;;
51358;SDS011;37448;51.588;7.248;2023-12-14T05:56:26;15.27;;;7.78;;
51358;SDS011;37448;51.588;7.248;2023-12-14T05:58:26;14.95;;;7.57;;
51358;SDS011;37448;51.588;7.248;2023-12-14T06:00:26;14.70;;;7.32;;
51358;SDS011;37448;51.588;7.248;2023-12-14T06:02:27;16.05;;;7.97;;
51358;SDS011;37448;51.588;7.248;2023-12-14T06:04:27;15.15;;;6.88;;
51358;SDS011;37448;51.588;7.248;2023-12-14T06:06:28;13.27;;;6.95;;
51358;SDS011;37448;51.588;7.248;2023-12-14T06:08:28;13.68;;;7.28;;
51358;SDS011;37448;51.588;7.248;2023-12-14T06:10:29;12.50;;;6.43;;
51358;SDS011;37448;51.588;7.248;2023-12-14T06:12:30;13.02;;;6.97;;
51358;SDS011;37448;51.588;7.248;2023-12-14T06:14:35;13.07;;;7.32;;
51358;SDS011;37448;51.588;7.248;2023-12-14T06:16:35;11.98;;;6.25;;
51358;SDS011;37448;51.588;7.248;2023-12-14T06:18:39;11.80;;;6.65;;
51358;SDS011;37448;51.588;7.248;2023-12-14T06:20:42;10.52;;;6.72;;
51358;SDS011;37448;51.588;7.248;2023-12-14T06:22:42;10.25;;;5.78;;
51358;SDS011;37448;51.588;7.248;2023-12-14T06:24:42;19.60;;;8.98;;
51358;SDS011;37448;51.588;7.248;2023-12-14T06:26:43;17.80;;;8.40;;
51358;SDS011;37448;51.588;7.248;2023-12-14T06:28:44;17.13;;;8.07;;
51358;SDS011;37448;51.588;7.248;2023-12-14T06:30:45;13.48;;;7.50;;
51358;SDS011;37448;51.588;7.248;2023-12-14T06:32:45;16.55;;;8.88;;
51358;SDS011;37448;51.588;7.248;2023-12-14T06:34:45;14.10;;;7.38;;
51358;SDS011;37448;51.588;7.248;2023-12-14T06:36:46;14.65;;;8.23;;
51358;SDS011;37448;51.588;7.248;2023-12-14T06:38:46;18.95;;;7.47;;
51358;SDS011;37448;51.588;7.248;2023-12-14T06:40:46;16.20;;;8.20;;
51358;SDS011;37448;51.588;7.248;2023-12-14T06:42:47;17.25;;;8.68;;
51358;SDS011;37448;51.588;7.248;2023-12-14T06:44:49;13.40;;;8.07;;
51358;SDS011;37448;51.588;7.248;2023-12-14T06:46:50;13.50;;;8.02;;
51358;SDS011;37448;51.588;7.248;2023-12-14T06:48:50;16.83;;;8.05;;
51358;SDS011;37448;51.588;7.248;2023-12-14T06:50:51;12.88;;;7.18;;
51358;SDS011;37448;51.588;7.248;2023-12-14T06:52:51;14.20;;;7.38;;
51358;SDS011;37448;51.588;7.248;2023-12-14T06:54:51;14.35;;;8.00;;
51358;SDS011;37448;51.588;7.248;2023-12-14T06:56:52;14.18;;;6.82;;
51358;SDS011;37448;51.588;7.248;2023-12-14T06:58:53;13.63;;;7.78;;
51358;SDS011;37448;51.588;7.248;2023-12-14T07:00:53;14.98;;;8.02;;
51358;SDS011;37448;51.588;7.248;2023-12-14T07:02:53;14.30;;;7.35;;
51358;SDS011;37448;51.588;7.248;2023-12-14T07:04:54;13.82;;;7.47;;
51358;SDS011;37448;51.588;7.248;2023-12-14T07:06:54;17.73;;;7.85;;
51358;SDS011;37448;51.588;7.248;2023-12-14T07:08:54;14.07;;;6.95;;
51358;SDS011;37448;51.588;7.248;2023-12-14T07:10:55;13.02;;;6.85;;
51358;SDS011;37448;51.588;7.248;2023-12-14T07:12:55;13.90;;;7.88;;
51358;SDS011;37448;51.588;7.248;2023-12-14T07:14:56;16.55;;;8.35;;
51358;SDS011;37448;51.588;7.248;2023-12-14T07:16:56;12.40;;;8.18;;
51358;SDS011;37448;51.588;7.248;2023-12-14T07:18:57;15.70;;;7.38;;
51358;SDS011;37448;51.588;7.248;2023-12-14T07:20:57;11.10;;;6.63;;
51358;SDS011;37448;51.588;7.248;2023-12-14T07:22:58;15.77;;;7.00;;
51358;SDS011;37448;51.588;7.248;2023-12-14T07:24:58;11.57;;;6.57;;
51358;SDS011;37448;51.588;7.248;2023-12-14T07:26:58;12.82;;;7.30;;
51358;SDS011;37448;51.588;7.248;2023-12-14T07:28:59;12.93;;;6.18;;
51358;SDS011;37448;51.588;7.248;2023-12-14T07:30:59;11.93;;;7.10;;
51358;SDS011;37448;51.588;7.248;2023-12-14T07:33:00;13.15;;;7.82;;
51358;SDS011;37448;51.588;7.248;2023-12-14T07:35:00;11.80;;;6.72;;
51358;SDS011;37448;51.588;7.248;2023-12-14T07:37:01;13.20;;;6.88;;
51358;SDS011;37448;51.588;7.248;2023-12-14T07:39:01;12.15;;;6.60;;
51358;SDS011;37448;51.588;7.248;2023-12-14T07:41:01;12.98;;;6.90;;
51358;SDS011;37448;51.588;7.248;2023-12-14T07:43:03;12.20;;;7.45;;
51358;SDS011;37448;51.588;7.248;2023-12-14T07:45:03;11.93;;;7.10;;
51358;SDS011;37448;51.588;7.248;2023-12-14T07:47:04;10.05;;;6.53;;
51358;SDS011;37448;51.588;7.248;2023-12-14T07:49:05;10.07;;;6.28;;
51358;SDS011;37448;51.588;7.248;2023-12-14T07:51:05;12.23;;;6.35;;
51358;SDS011;37448;51.588;7.248;2023-12-14T07:53:06;15.00;;;7.70;;
51358;SDS011;37448;51.588;7.248;2023-12-14T07:55:06;14.15;;;7.68;;
51358;SDS011;37448;51.588;7.248;2023-12-14T07:57:07;13.07;;;6.97;;
51358;SDS011;37448;51.588;7.248;2023-12-14T07:59:07;13.85;;;7.07;;
51358;SDS011;37448;51.588;7.248;2023-12-14T08:01:09;10.13;;;6.63;;
51358;SDS011;37448;51.588;7.248;2023-12-14T08:03:09;12.07;;;6.95;;
51358;SDS011;37448;51.588;7.248;2023-12-14T08:05:10;12.25;;;6.68;;
51358;SDS011;37448;51.588;7.248;2023-12-14T08:07:10;10.18;;;5.55;;
51358;SDS011;37448;51.588;7.248;2023-12-14T08:09:11;11.38;;;6.82;;
51358;SDS011;37448;51.588;7.248;2023-12-14T08:11:11;10.45;;;6.10;;
51358;SDS011;37448;51.588;7.248;2023-12-14T08:13:12;11.18;;;7.00;;
51358;SDS011;37448;51.588;7.248;2023-12-14T08:15:12;11.52;;;6.97;;
51358;SDS011;37448;51.588;7.248;2023-12-14T08:17:13;12.18;;;6.90;;
51358;SDS011;37448;51.588;7.248;2023-12-14T08:19:14;13.00;;;6.68;;
51358;SDS011;37448;51.588;7.248;2023-12-14T08:21:14;12.70;;;7.15;;
51358;SDS011;37448;51.588;7.248;2023-12-14T08:23:15;14.00;;;7.72;;
51358;SDS011;37448;51.588;7.248;2023-12-14T08:25:16;11.82;;;7.25;;
51358;SDS011;37448;51.588;7.248;2023-12-14T08:27:16;15.13;;;7.40;;
51358;SDS011;37448;51.588;7.248;2023-12-14T08:29:17;13.45;;;7.60;;
51358;SDS011;37448;51.588;7.248;2023-12-14T08:31:17;11.38;;;6.88;;
51358;SDS011;37448;51.588;7.248;2023-12-14T08:33:17;16.85;;;7.20;;
51358;SDS011;37448;51.588;7.248;2023-12-14T08:35:18;12.40;;;7.35;;
51358;SDS011;37448;51.588;7.248;2023-12-14T08:37:18;14.32;;;7.10;;
51358;SDS011;37448;51.588;7.248;2023-12-14T08:39:19;14.63;;;7.55;;
51358;SDS011;37448;51.588;7.248;2023-12-14T08:41:19;15.93;;;8.25;;
51358;SDS011;37448;51.588;7.248;2023-12-14T08:43:20;13.70;;;7.45;;
51358;SDS011;37448;51.588;7.248;2023-12-14T08:45:20;13.85;;;7.38;;
51358;SDS011;37448;51.588;7.248;2023-12-14T08:47:21;12.77;;;7.57;;
51358;SDS011;37448;51.588;7.248;2023-12-14T08:49:21;15.77;;;7.68;;
51358;SDS011;37448;51.588;7.248;2023-12-14T08:51:23;14.82;;;7.72;;
51358;SDS011;37448;51.588;7.248;2023-12-14T08:53:26;16.10;;;9.00;;
51358;SDS011;37448;51.588;7.248;2023-12-14T08:55:27;15.82;;;8.35;;
51358;SDS011;37448;51.588;7.248;2023-12-14T08:57:28;18.65;;;9.55;;
51358;SDS011;37448;51.588;7.248;2023-12-14T08:59:28;14.95;;;8.00;;
51358;SDS011;37448;51.588;7.248;2023-12-14T09:01:28;14.93;;;8.15;;
51358;SDS011;37448;51.588;7.248;2023-12-14T09:03:29;14.32;;;8.07;;
51358;SDS011;37448;51.588;7.248;2023-12-14T09:05:29;16.48;;;8.95;;
51358;SDS011;37448;51.588;7.248;2023-12-14T09:07:29;16.83;;;8.95;;
51358;SDS011;37448;51.588;7.248;2023-12-14T09:09:30;15.88;;;8.70;;
51358;SDS011;37448;51.588;7.248;2023-12-14T09:11:32;16.63;;;9.20;;
51358;SDS011;37448;51.588;7.248;2023-12-14T09:13:34;18.48;;;9.50;;
51358;SDS011;37448;51.588;7.248;2023-12-14T09:15:34;16.33;;;8.07;;
51358;SDS011;37448;51.588;7.248;2023-12-14T09:17:35;19.65;;;9.10;;
51358;SDS011;37448;51.588;7.248;2023-12-14T09:19:35;22.70;;;11.30;;
51358;SDS011;37448;51.588;7.248;2023-12-14T09:21:35;18.50;;;10.15;;
51358;SDS011;37448;51.588;7.248;2023-12-14T09:23:36;21.58;;;10.23;;
51358;SDS011;37448;51.588;7.248;2023-12-14T09:25:36;23.27;;;10.50;;
51358;SDS011;37448;51.588;7.248;2023-12-14T09:27:37;25.75;;;12.35;;
51358;SDS011;37448;51.588;7.248;2023-12-14T09:29:37;21.80;;;10.70;;
51358;SDS011;37448;51.588;7.248;2023-12-14T09:31:40;30.77;;;11.05;;
51358;SDS011;37448;51.588;7.248;2023-12-14T09:33:42;22.95;;;10.35;;
51358;SDS011;37448;51.588;7.248;2023-12-14T09:35:43;22.60;;;10.85;;
51358;SDS011;37448;51.588;7.248;2023-12-14T09:37:43;22.08;;;11.43;;
51358;SDS011;37448;51.588;7.248;2023-12-14T09:39:44;20.95;;;10.43;;
51358;SDS011;37448;51.588;7.248;2023-12-14T09:41:45;21.42;;;11.00;;
51358;SDS011;37448;51.588;7.248;2023-12-14T09:43:47;19.92;;;10.70;;
51358;SDS011;37448;51.588;7.248;2023-12-14T09:45:47;21.45;;;11.35;;
51358;SDS011;37448;51.588;7.248;2023-12-14T09:47:50;20.70;;;10.73;;
51358;SDS011;37448;51.588;7.248;2023-12-14T09:49:51;21.20;;;10.05;;
51358;SDS011;37448;51.588;7.248;2023-12-14T09:51:53;23.27;;;10.70;;
51358;SDS011;37448;51.588;7.248;2023-12-14T09:53:53;23.58;;;11.70;;
51358;SDS011;37448;51.588;7.248;2023-12-14T09:55:58;20.73;;;10.35;;
51358;SDS011;37448;51.588;7.248;2023-12-14T09:57:58;23.08;;;9.98;;
51358;SDS011;37448;51.588;7.248;2023-12-14T09:59:58;20.73;;;10.43;;
51358;SDS011;37448;51.588;7.248;2023-12-14T10:02:08;22.02;;;10.32;;
51358;SDS011;37448;51.588;7.248;2023-12-14T10:04:13;17.67;;;10.20;;
51358;SDS011;37448;51.588;7.248;2023-12-14T10:06:17;16.33;;;8.82;;
51358;SDS011;37448;51.588;7.248;2023-12-14T10:08:19;19.50;;;9.73;;
51358;SDS011;37448;51.588;7.248;2023-12-14T10:10:19;17.50;;;8.30;;
51358;SDS011;37448;51.588;7.248;2023-12-14T10:12:20;16.17;;;8.98;;
51358;SDS011;37448;51.588;7.248;2023-12-14T10:14:23;18.35;;;8.88;;
51358;SDS011;37448;51.588;7.248;2023-12-14T10:16:28;18.02;;;9.40;;
51358;SDS011;37448;51.588;7.248;2023-12-14T10:18:31;16.63;;;8.23;;
51358;SDS011;37448;51.588;7.248;2023-12-14T10:20:34;15.55;;;7.78;;
51358;SDS011;37448;51.588;7.248;2023-12-14T10:22:34;14.80;;;7.88;;
51358;SDS011;37448;51.588;7.248;2023-12-14T10:24:37;14.80;;;7.50;;
51358;SDS011;37448;51.588;7.248;2023-12-14T10:26:37;17.52;;;8.27;;
51358;SDS011;37448;51.588;7.248;2023-12-14T10:28:41;16.38;;;9.23;;
51358;SDS011;37448;51.588;7.248;2023-12-14T10:30:41;16.58;;;8.30;;
51358;SDS011;37448;51.588;7.248;2023-12-14T10:32:42;13.18;;;6.55;;
51358;SDS011;37448;51.588;7.248;2023-12-14T10:34:42;18.70;;;8.73;;
51358;SDS011;37448;51.588;7.248;2023-12-14T10:36:43;17.25;;;8.25;;
51358;SDS011;37448;51.588;7.248;2023-12-14T10:38:46;15.63;;;8.45;;
51358;SDS011;37448;51.588;7.248;2023-12-14T10:40:48;15.45;;;8.30;;
51358;SDS011;37448;51.588;7.248;2023-12-14T10:42:49;19.55;;;7.78;;
51358;SDS011;37448;51.588;7.248;2023-12-14T10:44:51;18.27;;;7.38;;
51358;SDS011;37448;51.588;7.248;2023-12-14T10:46:55;16.67;;;8.38;;
51358;SDS011;37448;51.588;7.248;2023-12-14T10:48:58;18.50;;;7.85;;
51358;SDS011;37448;51.588;7.248;2023-12-14T10:51:01;18.77;;;8.82;;
51358;SDS011;37448;51.588;7.248;2023-12-14T10:53:02;18.15;;;8.32;;
51358;SDS011;37448;51.588;7.248;2023-12-14T10:55:04;21.65;;;8.50;;
51358;SDS011;37448;51.588;7.248;2023-12-14T10:59:08;14.23;;;7.25;;
51358;SDS011;37448;51.588;7.248;2023-12-14T11:01:12;17.67;;;8.75;;
51358;SDS011;37448;51.588;7.248;2023-12-14T11:03:14;18.60;;;8.40;;
51358;SDS011;37448;51.588;7.248;2023-12-14T11:05:15;19.60;;;8.65;;
51358;SDS011;37448;51.588;7.248;2023-12-14T11:07:19;18.33;;;8.80;;
51358;SDS011;37448;51.588;7.248;2023-12-14T11:09:44;17.02;;;8.40;;
51358;SDS011;37448;51.588;7.248;2023-12-14T11:13:53;20.23;;;9.50;;
51358;SDS011;37448;51.588;7.248;2023-12-14T11:15:53;16.67;;;8.68;;
51358;SDS011;37448;51.588;7.248;2023-12-14T11:20:30;18.88;;;8.68;;
51358;SDS011;37448;51.588;7.248;2023-12-14T11:22:30;18.08;;;9.40;;
51358;SDS011;37448;51.588;7.248;2023-12-14T11:24:31;18.98;;;9.18;;
51358;SDS011;37448;51.588;7.248;2023-12-14T11:26:31;17.83;;;8.25;;
51358;SDS011;37448;51.588;7.248;2023-12-14T11:28:34;19.38;;;9.00;;
51358;SDS011;37448;51.588;7.248;2023-12-14T11:30:36;17.25;;;10.00;;
51358;SDS011;37448;51.588;7.248;2023-12-14T11:32:37;19.27;;;9.52;;
51358;SDS011;37448;51.588;7.248;2023-12-14T11:34:39;17.48;;;8.38;;
51358;SDS011;37448;51.588;7.248;2023-12-14T11:36:40;18.92;;;9.15;;
51358;SDS011;37448;51.588;7.248;2023-12-14T11:38:42;24.83;;;9.55;;
51358;SDS011;37448;51.588;7.248;2023-12-14T11:40:43;21.38;;;9.68;;
51358;SDS011;37448;51.588;7.248;2023-12-14T11:42:43;15.88;;;7.55;;
51358;SDS011;37448;51.588;7.248;2023-12-14T11:44:46;18.42;;;9.48;;
51358;SDS011;37448;51.588;7.248;2023-12-14T11:46:47;20.10;;;9.43;;
51358;SDS011;37448;51.588;7.248;2023-12-14T11:48:47;17.58;;;8.82;;
51358;SDS011;37448;51.588;7.248;2023-12-14T11:50:50;17.75;;;8.00;;
51358;SDS011;37448;51.588;7.248;2023-12-14T11:52:51;17.80;;;8.75;;
51358;SDS011;37448;51.588;7.248;2023-12-14T11:54:52;21.23;;;8.68;;
51358;SDS011;37448;51.588;7.248;2023-12-14T11:56:53;17.77;;;8.80;;
51358;SDS011;37448;51.588;7.248;2023-12-14T11:58:54;20.52;;;9.13;;
51358;SDS011;37448;51.588;7.248;2023-12-14T12:00:55;21.33;;;9.75;;
51358;SDS011;37448;51.588;7.248;2023-12-14T12:05:19;16.63;;;7.97;;
51358;SDS011;37448;51.588;7.248;2023-12-14T12:07:35;16.48;;;8.55;;
51358;SDS011;37448;51.588;7.248;2023-12-14T12:09:36;16.63;;;8.40;;